Time;durP1;ratioP1;P1;durP2;ratioP2;P2;SDS_P1;SDS_P2;PMS_P1;PMS_P2;Temp;Humidity;BMP_temperature;BMP_pressure;BME280_temperature;BME280_humidity;BME280_pressure;Samples;Min_cycle;Max_cycle;Signal;HPM_P1;HPM_P2
2024/02/08 00:01:38;;;;;;;;;;;;;;;-1.48;100.00;99959.84;5115228;28;19927;-77
2024/02/08 00:04:03;;;;;;;;;;;;;;;-1.51;100.00;99954.00;5113681;28;19924;-77
2024/02/08 00:06:31;;;;;;;;;;;;;;;-1.53;100.00;99948.84;5113794;28;19920;-77
2024/02/08 00:08:57;;;;;;;;;;;;;;;-1.53;100.00;99947.06;5112439;28;19955;-77
2024/02/08 00:11:25;;;;;;;;;;;;;;;-1.56;100.00;99951.78;5111134;28;20423;-77
2024/02/08 00:13:50;;;;;;;;;;;;;;;-1.56;100.00;99957.91;5107209;28;19930;-77
2024/02/08 00:16:15;;;;;;;;;;;;;;;-1.51;100.00;99960.09;5111786;28;19919;-77
2024/02/08 00:18:40;;;;;;;;;;;;;;;-1.47;100.00;99955.38;5113137;28;19920;-77
2024/02/08 00:21:09;;;;;;;;;;;;;;;-1.46;100.00;99963.16;5112374;28;19920;-77
2024/02/08 00:23:36;;;;;;;;;;;;;;;-1.43;100.00;99962.03;5111799;28;19991;-77
2024/02/08 00:26:02;;;;;;;;;;;;;;;-1.40;100.00;99957.31;5111985;28;19928;-77
2024/02/08 00:28:27;;;;;;;;;;;;;;;-1.41;100.00;99955.63;5113454;28;19926;-77
2024/02/08 00:30:53;;;;;;;;;;;;;;;-1.41;100.00;99945.06;5111528;28;19928;-77
2024/02/08 00:33:19;;;;;;;;;;;;;;;-1.41;100.00;99952.19;5112051;28;20033;-77
2024/02/08 00:35:44;;;;;;;;;;;;;;;-1.43;100.00;99957.63;5113447;28;19919;-77
2024/02/08 00:38:09;;;;;;;;;;;;;;;-1.42;100.00;99954.00;5112111;28;19923;-77
2024/02/08 00:40:34;;;;;;;;;;;;;;;-1.41;100.00;99952.19;5112595;28;20003;-77
2024/02/08 00:43:05;;;;;;;;;;;;;;;-1.38;100.00;99949.25;5112945;28;20080;-77
2024/02/08 00:45:31;;;;;;;;;;;;;;;-1.37;100.00;99951.75;5111579;28;19927;-77
2024/02/08 00:47:58;;;;;;;;;;;;;;;-1.31;100.00;99938.97;5112132;28;20706;-76
2024/02/08 00:50:23;;;;;;;;;;;;;;;-1.30;100.00;99943.28;5107201;28;20354;-77
2024/02/08 00:52:48;;;;;;;;;;;;;;;-1.30;100.00;99941.44;5111739;28;19923;-77
2024/02/08 00:55:15;;;;;;;;;;;;;;;-1.30;100.00;99935.34;5111972;28;19919;-76
2024/02/08 00:57:41;;;;;;;;;;;;;;;-1.32;100.00;99940.75;5106478;28;19976;-77
2024/02/08 01:00:06;;;;;;;;;;;;;;;-1.30;100.00;99935.34;5112322;28;19919;-77
2024/02/08 01:02:31;;;;;;;;;;;;;;;-1.26;100.00;99934.09;5103019;28;20007;-77
2024/02/08 01:04:58;;;;;;;;;;;;;;;-1.30;100.00;99932.72;5109503;28;20398;-77
2024/02/08 01:07:23;;;;;;;;;;;;;;;-1.33;100.00;99941.75;5099839;28;20295;-77
2024/02/08 01:09:49;;;;;;;;;;;;;;;-1.31;100.00;99950.34;5108338;28;19931;-77
2024/02/08 01:12:14;;;;;;;;;;;;;;;-1.28;100.00;99947.44;5099502;28;19924;-77
2024/02/08 01:14:39;;;;;;;;;;;;;;;-1.24;100.00;99943.53;5108150;28;20072;-77
2024/02/08 01:17:07;;;;;;;;;;;;;;;-1.18;100.00;99947.41;5111475;28;19927;-77
2024/02/08 01:19:33;;;;;;;;;;;;;;;-1.15;100.00;99949.75;5103424;28;20005;-77
2024/02/08 01:21:58;;;;;;;;;;;;;;;-1.17;100.00;99946.44;5112054;28;20283;-77
2024/02/08 01:24:24;;;;;;;;;;;;;;;-1.18;100.00;99947.41;5106428;28;20012;-77
2024/02/08 01:26:49;;;;;;;;;;;;;;;-1.17;100.00;99949.06;5111787;28;19919;-77
2024/02/08 01:29:14;;;;;;;;;;;;;;;-1.20;100.00;99954.63;5103850;28;19931;-77
2024/02/08 01:31:40;;;;;;;;;;;;;;;-1.23;100.00;99947.84;5106522;28;20436;-77
2024/02/08 01:34:07;;;;;;;;;;;;;;;-1.19;100.00;99945.72;5109425;28;19927;-77
2024/02/08 01:36:32;;;;;;;;;;;;;;;-1.19;100.00;99934.34;5112303;28;20006;-77
2024/02/08 01:38:58;;;;;;;;;;;;;;;-1.19;100.00;99942.28;5110182;28;20074;-77
2024/02/08 01:41:24;;;;;;;;;;;;;;;-1.24;100.00;99943.53;5111247;28;20394;-77
2024/02/08 01:43:49;;;;;;;;;;;;;;;-1.23;100.00;99950.47;5105177;28;19920;-77
2024/02/08 01:46:15;;;;;;;;;;;;;;;-1.22;100.00;99948.66;5100423;27;19919;-77
2024/02/08 01:48:44;;;;;;;;;;;;;;;-1.19;100.00;99939.63;5116839;27;20436;-77
2024/02/08 01:51:12;;;;;;;;;;;;;;;-1.17;100.00;99938.50;5089729;28;20439;-77
2024/02/08 01:53:39;;;;;;;;;;;;;;;-1.16;100.00;99934.88;5107611;28;19924;-77
2024/02/08 01:56:05;;;;;;;;;;;;;;;-1.17;100.00;99942.97;5110070;28;20363;-77
2024/02/08 01:58:30;;;;;;;;;;;;;;;-1.18;100.00;99939.47;5103998;28;20378;-76
2024/02/08 02:00:56;;;;;;;;;;;;;;;-1.22;100.00;99927.53;5085405;28;19969;-76
2024/02/08 02:03:23;;;;;;;;;;;;;;;-1.21;100.00;99923.91;5110983;28;20283;-76
2024/02/08 02:05:48;;;;;;;;;;;;;;;-1.21;100.00;99918.63;5123204;27;19931;-76
2024/02/08 02:08:17;;;;;;;;;;;;;;;-1.24;100.00;99925.03;5111920;28;19915;-76
2024/02/08 02:10:44;;;;;;;;;;;;;;;-1.26;100.00;99912.97;5106354;28;19928;-76
2024/02/08 02:13:09;;;;;;;;;;;;;;;-1.26;100.00;99912.97;5112082;28;19998;-76
2024/02/08 02:15:35;;;;;;;;;;;;;;;-1.27;100.00;99914.75;5095768;28;19987;-77
2024/02/08 02:18:00;;;;;;;;;;;;;;;-1.28;100.00;99921.00;5091671;28;19920;-76
2024/02/08 02:20:29;;;;;;;;;;;;;;;-1.29;100.00;99921.19;5113298;28;19915;-76
2024/02/08 02:22:54;;;;;;;;;;;;;;;-1.28;100.00;99931.56;5114574;28;19934;-77
2024/02/08 02:25:20;;;;;;;;;;;;;;;-1.25;100.00;99927.84;5115228;28;19920;-76
2024/02/08 02:27:46;;;;;;;;;;;;;;;-1.26;100.00;99932.28;5114293;28;19939;-77
2024/02/08 02:30:15;;;;;;;;;;;;;;;-1.24;100.00;99914.47;5106760;28;19920;-76
2024/02/08 02:32:50;;;;;;;;;;;;;;;-1.22;100.00;99916.97;5101544;28;19968;-78
2024/02/08 02:35:16;;;;;;;;;;;;;;;-1.24;100.00;99908.38;5097016;28;19919;-78
2024/02/08 02:37:42;;;;;;;;;;;;;;;-1.26;100.00;99902.41;5105836;28;20341;-78
2024/02/08 02:40:07;;;;;;;;;;;;;;;-1.26;100.00;99903.22;5095674;28;19947;-78
2024/02/08 02:42:35;;;;;;;;;;;;;;;-1.24;100.00;99898.63;5111309;28;22123;-78
2024/02/08 02:45:01;;;;;;;;;;;;;;;-1.25;100.00;99882.94;5114254;28;20022;-77
2024/02/08 02:47:26;;;;;;;;;;;;;;;-1.25;100.00;99898.78;5114045;28;19958;-78
2024/02/08 02:49:55;;;;;;;;;;;;;;;-1.25;100.00;99894.34;5114621;28;19955;-77
2024/02/08 02:52:21;;;;;;;;;;;;;;;-1.27;100.00;99893.63;5105706;28;19923;-77
2024/02/08 02:54:47;;;;;;;;;;;;;;;-1.21;100.00;99889.59;5113841;28;19942;-77
2024/02/08 02:57:14;;;;;;;;;;;;;;;-1.22;100.00;99883.50;5116072;28;20406;-77
2024/02/08 02:59:42;;;;;;;;;;;;;;;-1.23;100.00;99887.09;5113288;28;19919;-77
2024/02/08 03:02:08;;;;;;;;;;;;;;;-1.23;100.00;99897.66;5114054;28;19972;-77
2024/02/08 03:04:33;;;;;;;;;;;;;;;-1.23;100.00;99897.66;5114286;28;19931;-77
2024/02/08 03:06:58;;;;;;;;;;;;;;;-1.23;100.00;99883.63;5114144;28;20272;-77
2024/02/08 03:09:27;;;;;;;;;;;;;;;-1.22;100.00;99885.28;5114582;28;20225;-77
2024/02/08 03:11:52;;;;;;;;;;;;;;;-1.20;100.00;99891.25;5113773;28;20398;-77
2024/02/08 03:14:22;;;;;;;;;;;;;;;-1.17;100.00;99877.75;5111598;28;19920;-77
2024/02/08 03:16:47;;;;;;;;;;;;;;;-1.05;100.00;99867.00;5114368;28;19935;-75
2024/02/08 03:19:12;;;;;;;;;;;;;;;-1.04;100.00;99866.03;5109654;28;19923;-76
2024/02/08 03:21:40;;;;;;;;;;;;;;;-1.05;100.00;99872.28;5103610;28;19916;-76
2024/02/08 03:24:08;;;;;;;;;;;;;;;-1.08;100.00;99871.63;5109901;28;19920;-75
2024/02/08 03:26:46;;;;;;;;;;;;;;;-1.10;100.00;99878.84;5109962;28;20004;-75
2024/02/08 03:29:12;;;;;;;;;;;;;;;-1.11;100.00;99884.28;5110089;28;19923;-77
2024/02/08 03:31:46;;;;;;;;;;;;;;;-1.08;100.00;99886.63;5105866;28;19920;-77
2024/02/08 03:34:23;;;;;;;;;;;;;;;-1.08;100.00;99876.91;5113898;28;19922;-77
2024/02/08 03:36:49;;;;;;;;;;;;;;;-1.03;100.00;99881.75;5114615;28;19951;-77
2024/02/08 03:39:24;;;;;;;;;;;;;;;-1.03;100.00;99880.91;5113442;28;20328;-74
2024/02/08 03:41:51;;;;;;;;;;;;;;;-1.02;100.00;99879.91;5110241;28;20143;-77
2024/02/08 03:44:16;;;;;;;;;;;;;;;-1.02;100.00;99864.91;5111475;28;19931;-78
2024/02/08 03:46:42;;;;;;;;;;;;;;;-0.98;100.00;99865.44;5113656;28;19920;-78
2024/02/08 03:49:08;;;;;;;;;;;;;;;-0.99;100.00;99863.78;5113750;28;19919;-78
2024/02/08 03:51:37;;;;;;;;;;;;;;;-0.98;100.00;99854.88;5113809;28;20410;-78
2024/02/08 03:54:03;;;;;;;;;;;;;;;-0.99;100.00;99866.44;5104324;28;20020;-77
2024/02/08 03:56:36;;;;;;;;;;;;;;;-1.01;100.00;99860.47;5114125;28;20389;-78
2024/02/08 03:59:07;;;;;;;;;;;;;;;-1.02;100.00;99851.72;5113614;28;19920;-77
2024/02/08 04:01:32;;;;;;;;;;;;;;;-1.00;100.00;99862.13;5112211;28;19964;-78
2024/02/08 04:04:11;;;;;;;;;;;;;;;-0.99;100.00;99848.78;5105271;28;20011;-78
2024/02/08 04:06:37;;;;;;;;;;;;;;;-0.99;100.00;99854.06;5105486;28;19927;-78
2024/02/08 04:09:16;;;;;;;;;;;;;;;-1.00;100.00;99852.41;5113243;28;19924;-78
2024/02/08 04:55:27;;;;;;;;;;;;;;;-0.84;100.00;99845.66;5112442;28;19927;-77
2024/02/08 04:57:55;;;;;;;;;;;;;;;-0.83;100.00;99836.75;5112395;28;19927;-77
2024/02/08 05:00:22;;;;;;;;;;;;;;;-0.86;100.00;99834.38;5104218;28;19982;-77
2024/02/08 05:02:49;;;;;;;;;;;;;;;-0.86;100.00;99837.84;5095810;28;20388;-78
2024/02/08 05:05:19;;;;;;;;;;;;;;;-0.88;100.00;99829.22;5111975;28;19934;-77
2024/02/08 05:07:51;;;;;;;;;;;;;;;-0.88;100.00;99818.66;5109914;28;19923;-78
2024/02/08 05:10:18;;;;;;;;;;;;;;;-0.79;100.00;99819.59;5107389;28;19959;-77
2024/02/08 05:12:46;;;;;;;;;;;;;;;-0.78;100.00;99819.47;5109329;28;19931;-77
2024/02/08 05:15:13;;;;;;;;;;;;;;;-0.72;100.00;99814.56;5106186;28;20497;-77
2024/02/08 05:17:40;;;;;;;;;;;;;;;-0.72;100.00;99811.91;5112387;28;19962;-77
2024/02/08 05:20:11;;;;;;;;;;;;;;;-0.75;100.00;99810.38;5112344;28;19977;-77
2024/02/08 05:22:36;;;;;;;;;;;;;;;-0.77;100.00;99807.91;5104007;22;19928;-78
2024/02/08 05:25:01;;;;;;;;;;;;;;;-0.77;100.00;99807.91;5091245;28;19920;-78
2024/02/08 05:27:33;;;;;;;;;;;;;;;-0.80;100.00;99799.47;5091343;28;19920;-77
2024/02/08 05:29:58;;;;;;;;;;;;;;;-0.85;100.00;99807.81;5091386;28;19920;-78
2024/02/08 05:32:24;;;;;;;;;;;;;;;-0.85;100.00;99810.44;5091488;28;20379;-77
2024/02/08 05:34:50;;;;;;;;;;;;;;;-0.89;100.00;99817.03;5091956;28;19927;-77
2024/02/08 05:37:15;;;;;;;;;;;;;;;-0.93;100.00;99816.47;5091255;28;19924;-77
2024/02/08 05:39:41;;;;;;;;;;;;;;;-0.92;100.00;99817.31;5090494;28;19980;-77
2024/02/08 05:42:06;;;;;;;;;;;;;;;-0.89;100.00;99806.47;5091927;28;19920;-77
2024/02/08 05:44:31;;;;;;;;;;;;;;;-0.85;100.00;99817.56;5072843;28;19973;-77
2024/02/08 05:46:56;;;;;;;;;;;;;;;-0.82;100.00;99818.09;5090926;28;20295;-77
2024/02/08 05:49:25;;;;;;;;;;;;;;;-0.78;100.00;99813.31;5092344;28;20268;-77
2024/02/08 05:51:52;;;;;;;;;;;;;;;-0.74;100.00;99809.41;5090322;28;20405;-77
2024/02/08 05:54:20;;;;;;;;;;;;;;;-0.71;100.00;99808.31;5089936;28;20367;-77
2024/02/08 05:56:45;;;;;;;;;;;;;;;-0.67;100.00;99809.63;5092219;28;19924;-77
2024/02/08 05:59:10;;;;;;;;;;;;;;;-0.66;100.00;99808.66;5091370;28;20394;-78
2024/02/08 06:01:47;;;;;;;;;;;;;;;-0.66;100.00;99809.50;5089534;28;20287;-79
2024/02/08 06:04:22;;;;;;;;;;;;;;;-0.67;100.00;99810.50;5083888;28;19973;-79
2024/02/08 06:06:58;;;;;;;;;;;;;;;-0.67;100.00;99797.28;5091013;28;19971;-79
2024/02/08 06:09:42;;;;;;;;;;;;;;;-0.67;100.00;99799.06;5090549;28;19920;-79
2024/02/08 06:12:16;;;;;;;;;;;;;;;-0.67;100.00;99797.28;5091739;28;20535;-79
2024/02/08 06:14:44;;;;;;;;;;;;;;;-0.67;100.00;99807.00;5090418;28;19949;-79
2024/02/08 06:17:09;;;;;;;;;;;;;;;-0.66;100.00;99798.94;5109825;28;20005;-79
2024/02/08 06:19:39;;;;;;;;;;;;;;;-0.66;100.00;99811.31;5093989;28;20313;-79
2024/02/08 06:22:20;;;;;;;;;;;;;;;-0.65;100.00;99792.66;5091421;28;19935;-80
2024/02/08 06:24:45;;;;;;;;;;;;;;;-0.59;100.00;99793.88;5090186;28;19977;-79
2024/02/08 06:27:13;;;;;;;;;;;;;;;-0.59;100.00;99793.88;5091734;28;19928;-79
2024/02/08 06:29:49;;;;;;;;;;;;;;;-0.56;100.00;99784.81;5089923;28;19920;-79
2024/02/08 06:32:33;;;;;;;;;;;;;;;-0.59;100.00;99775.38;5091244;28;19928;-79
2024/02/08 06:37:42;;;;;;;;;;;;;;;-0.66;100.00;99790.16;5089825;28;19920;-78
2024/02/08 06:40:07;;;;;;;;;;;;;;;-0.68;100.00;99786.84;5090638;28;19924;-77
2024/02/08 07:37:25;;;;;;;;;;;;;;;-0.11;100.00;99743.34;5071934;28;19944;-81
2024/02/08 07:40:02;;;;;;;;;;;;;;;-0.03;100.00;99738.13;5064356;28;20352;-81
2024/02/08 07:42:41;;;;;;;;;;;;;;;-0.03;100.00;99743.41;5071149;28;19920;-81
2024/02/08 07:45:06;;;;;;;;;;;;;;;-0.04;100.00;99728.53;5070859;28;19925;-80
2024/02/08 07:47:33;;;;;;;;;;;;;;;-0.05;100.00;99732.97;5071252;28;20001;-81
2024/02/08 07:49:58;;;;;;;;;;;;;;;0.01;100.00;99731.50;5071134;28;19928;-81
2024/02/08 07:52:29;;;;;;;;;;;;;;;0.07;100.00;99738.03;5070411;28;19927;-81
2024/02/08 07:55:47;;;;;;;;;;;;;;;0.08;100.00;99734.38;5071676;28;19924;-81
2024/02/08 07:57:57;;;;;;;;;;;;;;;0.11;100.00;99740.19;5067432;28;20295;-81
2024/02/08 08:03:00;;;;;;;;;;;;;;;0.23;100.00;99731.97;5070194;28;19985;-80
2024/02/08 08:05:31;;;;;;;;;;;;;;;0.28;100.00;99724.41;5070631;28;19924;-81
2024/02/08 08:08:01;;;;;;;;;;;;;;;0.34;100.00;99718.47;5069840;28;20019;-81
2024/02/08 08:10:33;;;;;;;;;;;;;;;0.39;100.00;99718.00;5071991;28;20008;-79
2024/02/08 08:12:58;;;;;;;;;;;;;;;0.42;100.00;99702.63;5070363;28;19920;-80
2024/02/08 08:15:24;;;;;;;;;;;;;;;0.53;100.00;99700.69;5069345;28;19974;-80
2024/02/08 08:17:59;;;;;;;;;;;;;;;0.54;100.00;99703.16;5069331;28;19917;-83
2024/02/08 08:23:25;;;;;;;;;;;;;;;0.75;100.00;99699.25;5094275;28;19990;-79
2024/02/08 08:26:23;;;;;;;;;;;;;;;0.77;100.00;99696.44;5102796;28;20019;-80
2024/02/08 08:29:02;;;;;;;;;;;;;;;0.91;100.00;99701.09;5089422;28;19943;-78
2024/02/08 08:31:37;;;;;;;;;;;;;;;1.00;100.00;99692.19;5090833;28;20137;-81
2024/02/08 08:36:57;;;;;;;;;;;;;;;1.10;100.00;99680.59;5090455;28;19927;-80
2024/02/08 08:42:06;;;;;;;;;;;;;;;1.25;100.00;99670.19;5090940;28;19935;-81
2024/02/08 08:44:34;;;;;;;;;;;;;;;1.26;100.00;99667.34;5088242;28;19920;-79
2024/02/08 08:47:08;;;;;;;;;;;;;;;1.47;100.00;99664.22;5103982;22;20031;-80
2024/02/08 08:49:39;;;;;;;;;;;;;;;1.58;100.00;99663.03;5105723;27;19959;-78
2024/02/08 08:52:06;;;;;;;;;;;;;;;1.76;100.00;99654.88;5102414;27;19959;-80
2024/02/08 08:54:36;;;;;;;;;;;;;;;1.78;100.00;99652.03;5100373;28;19964;-80
2024/02/08 08:57:06;;;;;;;;;;;;;;;1.88;100.00;99646.53;5102328;28;19931;-80
2024/02/08 08:59:42;;;;;;;;;;;;;;;1.98;100.00;99647.19;5078052;28;20030;-80
2024/02/08 09:02:13;;;;;;;;;;;;;;;2.01;100.00;99653.97;5099635;28;19941;-80
2024/02/08 09:04:38;;;;;;;;;;;;;;;2.04;100.00;99643.03;5106856;28;20030;-80
2024/02/08 09:07:12;;;;;;;;;;;;;;;2.00;100.00;99637.25;5145520;22;20027;-80
2024/02/08 09:09:54;;;;;;;;;;;;;;;2.17;100.00;99635.34;5102022;22;19931;-80
2024/02/08 09:12:28;;;;;;;;;;;;;;;2.29;100.00;99627.00;5113535;27;19965;-80
2024/02/08 09:14:53;;;;;;;;;;;;;;;2.16;100.00;99628.38;5109135;27;19970;-80
2024/02/08 09:17:25;;;;;;;;;;;;;;;2.24;100.00;99625.69;5123268;27;20052;-80
2024/02/08 09:19:50;;;;;;;;;;;;;;;2.17;100.00;99616.75;5131190;27;20278;-80
2024/02/08 09:22:17;;;;;;;;;;;;;;;2.25;100.00;99619.38;5129846;27;19920;-80
2024/02/08 09:24:44;;;;;;;;;;;;;;;2.32;100.00;99616.00;5130630;27;20702;-79
2024/02/08 09:27:15;;;;;;;;;;;;;;;2.29;100.00;99611.06;5112882;27;19920;-79
2024/02/08 09:29:42;;;;;;;;;;;;;;;2.29;100.00;99611.88;5127812;27;19926;-81
2024/02/08 09:34:54;;;;;;;;;;;;;;;2.42;100.00;99622.78;5116131;27;20398;-81
2024/02/08 09:37:19;;;;;;;;;;;;;;;2.41;100.00;99612.34;5119729;27;20064;-80
2024/02/08 09:39:58;;;;;;;;;;;;;;;2.42;100.00;99608.69;5131347;27;20370;-80
2024/02/08 09:42:37;;;;;;;;;;;;;;;2.46;100.00;99607.34;5113691;27;20291;-80
2024/02/08 09:45:42;;;;;;;;;;;;;;;2.42;100.00;99595.41;5124372;27;19919;-80
2024/02/08 09:48:25;;;;;;;;;;;;;;;2.49;100.00;99596.34;5129745;27;19984;-80
2024/02/08 09:50:50;;;;;;;;;;;;;;;2.56;100.00;99588.47;5127513;27;19939;-80
2024/02/08 09:53:18;;;;;;;;;;;;;;;2.49;100.00;99588.34;5116882;27;19949;-80
2024/02/08 09:55:55;;;;;;;;;;;;;;;2.50;100.00;99587.38;5131084;27;19926;-80
2024/02/08 09:58:38;;;;;;;;;;;;;;;2.60;100.00;99586.31;5121846;27;19923;-80
2024/02/08 10:01:30;;;;;;;;;;;;;;;2.61;100.00;99587.97;5125676;27;20011;-80
2024/02/08 10:04:04;;;;;;;;;;;;;;;2.51;100.00;99578.38;5124312;27;19955;-80
2024/02/08 10:09:36;;;;;;;;;;;;;;;2.46;100.00;99572.81;5109155;28;20389;-80
2024/02/08 10:12:08;;;;;;;;;;;;;;;2.43;100.00;99573.16;5129863;28;20376;-80
2024/02/08 10:14:36;;;;;;;;;;;;;;;2.47;100.00;99561.16;5129166;28;20286;-80
2024/02/08 10:17:41;;;;;;;;;;;;;;;2.42;100.00;99558.22;5130999;28;19920;-80
2024/02/08 10:28:21;;;;;;;;;;;;;;;2.40;100.00;99528.34;5129193;28;19980;-79
2024/02/08 10:30:53;;;;;;;;;;;;;;;2.29;100.00;99528.75;5153998;28;19919;-79
2024/02/08 10:33:24;;;;;;;;;;;;;;;2.23;100.00;99530.25;5124840;28;20393;-79
2024/02/08 10:35:53;;;;;;;;;;;;;;;2.32;100.00;99523.06;5129521;28;20371;-80
2024/02/08 10:38:29;;;;;;;;;;;;;;;2.43;100.00;99523.50;5130700;28;19991;-79
2024/02/08 10:40:55;;;;;;;;;;;;;;;2.36;100.00;99527.03;5130101;27;19927;-79
2024/02/08 10:43:24;;;;;;;;;;;;;;;2.39;100.00;99511.56;5112395;27;20017;-80
2024/02/08 10:46:02;;;;;;;;;;;;;;;2.46;100.00;99501.09;5134399;27;19951;-81
2024/02/08 10:48:28;;;;;;;;;;;;;;;2.49;100.00;99492.72;5134173;27;20286;-80
2024/02/08 10:50:53;;;;;;;;;;;;;;;2.42;100.00;99494.47;5132936;27;19919;-80
2024/02/08 10:56:14;;;;;;;;;;;;;;;2.47;100.00;99478.81;5132845;27;20542;-86
2024/02/08 10:58:55;;;;;;;;;;;;;;;2.45;100.00;99472.88;5133408;27;20298;-79
2024/02/08 11:01:32;;;;;;;;;;;;;;;2.43;100.00;99464.25;5118677;27;19920;-76
2024/02/08 11:04:01;;;;;;;;;;;;;;;2.46;100.00;99463.06;5132688;27;20286;-77
2024/02/08 11:06:28;;;;;;;;;;;;;;;2.40;100.00;99464.59;5131907;27;19928;-77
2024/02/08 11:09:19;;;;;;;;;;;;;;;;;;;;;
2024/02/08 11:11:44;;;;;;;;;;;;;;;2.51;100.00;99440.25;5091324;28;20316;-78
2024/02/08 11:14:11;;;;;;;;;;;;;;;2.39;100.00;99421.25;5093052;28;20010;-77
2024/02/08 11:16:37;;;;;;;;;;;;;;;2.41;100.00;99415.78;5096702;28;20500;-79
2024/02/08 11:19:04;;;;;;;;;;;;;;;2.37;100.00;99411.84;5093277;28;19943;-79
2024/02/08 11:21:42;;;;;;;;;;;;;;;2.32;100.00;99414.19;5098058;28;20003;-78
2024/02/08 11:24:08;;;;;;;;;;;;;;;2.34;100.00;99420.16;5112113;28;19926;-78
2024/02/08 11:26:34;;;;;;;;;;;;;;;2.37;100.00;99430.41;5096921;28;19920;-78
2024/02/08 11:29:04;;;;;;;;;;;;;;;2.37;100.00;99433.91;5101200;28;19920;-78
2024/02/08 11:31:33;;;;;;;;;;;;;;;2.36;100.00;99428.78;5105760;28;19920;-78
2024/02/08 11:34:24;;;;;;;;;;;;;;;2.45;100.00;99419.75;5099563;28;19926;-78
2024/02/08 11:36:52;;;;;;;;;;;;;;;2.40;100.00;99409.63;5112447;28;19924;-79
2024/02/08 11:39:26;;;;;;;;;;;;;;;2.35;100.00;99405.88;5096641;28;20323;-78
2024/02/08 11:41:52;;;;;;;;;;;;;;;2.20;100.00;99380.09;5094107;28;19920;-78
2024/02/08 11:44:21;;;;;;;;;;;;;;;2.11;100.00;99365.25;5091706;28;20344;-79
2024/02/08 11:46:46;;;;;;;;;;;;;;;2.02;100.00;99356.53;5100934;28;19931;-78
2024/02/08 11:49:14;;;;;;;;;;;;;;;1.98;100.00;99355.25;5090732;28;20372;-78
2024/02/08 11:51:45;;;;;;;;;;;;;;;1.97;100.00;99388.91;5092544;28;20004;-78
2024/02/08 11:54:11;;;;;;;;;;;;;;;2.10;100.00;99424.66;5092365;28;19924;-78
2024/02/08 11:56:36;;;;;;;;;;;;;;;2.21;100.00;99432.22;5090415;28;19927;-78
2024/02/08 11:59:05;;;;;;;;;;;;;;;2.19;100.00;99415.63;5094006;28;19919;-79
2024/02/08 12:01:32;;;;;;;;;;;;;;;2.17;100.00;99406.19;5095962;28;20386;-79
2024/02/08 12:03:57;;;;;;;;;;;;;;;2.13;100.00;99387.13;5091420;28;20292;-79
2024/02/08 12:06:23;;;;;;;;;;;;;;;2.17;100.00;99359.22;5104123;28;19928;-79
2024/02/08 12:09:02;;;;;;;;;;;;;;;2.08;100.00;99357.66;5107773;27;19935;-79
2024/02/08 12:11:30;;;;;;;;;;;;;;;1.99;100.00;99350.75;5129283;27;19927;-80
2024/02/08 12:14:06;;;;;;;;;;;;;;;1.92;100.00;99362.09;5115605;27;20387;-79
2024/02/08 12:16:32;;;;;;;;;;;;;;;2.07;100.00;99369.28;5112576;28;20010;-79
2024/02/08 12:18:59;;;;;;;;;;;;;;;2.13;100.00;99384.47;5123884;27;20018;-79
2024/02/08 12:21:27;;;;;;;;;;;;;;;2.20;100.00;99377.44;5125294;27;20170;-78
2024/02/08 12:24:01;;;;;;;;;;;;;;;2.20;100.00;99385.41;5121381;27;19915;-79
2024/02/08 12:26:38;;;;;;;;;;;;;;;2.29;100.00;99394.13;5117953;27;20216;-78
2024/02/08 12:29:16;;;;;;;;;;;;;;;2.27;100.00;99399.66;5107781;27;20268;-79
2024/02/08 12:31:45;;;;;;;;;;;;;;;2.26;100.00;99399.81;5112475;27;20014;-79
2024/02/08 12:34:13;;;;;;;;;;;;;;;2.27;100.00;99390.84;5096909;27;19986;-78
2024/02/08 12:36:39;;;;;;;;;;;;;;;2.37;100.00;99390.59;5130565;27;19924;-78
2024/02/08 12:39:17;;;;;;;;;;;;;;;2.26;100.00;99389.19;5126528;27;19984;-78
2024/02/08 12:41:53;;;;;;;;;;;;;;;2.19;100.00;99373.16;5117273;27;19923;-78
2024/02/08 12:44:20;;;;;;;;;;;;;;;2.15;100.00;99366.53;5098851;27;19945;-78
2024/02/08 12:46:49;;;;;;;;;;;;;;;2.09;100.00;99361.97;5123766;27;20459;-78
2024/02/08 12:49:15;;;;;;;;;;;;;;;2.03;100.00;99360.00;5128567;27;19966;-78
2024/02/08 12:51:40;;;;;;;;;;;;;;;2.02;100.00;99367.16;5107328;28;19955;-78
2024/02/08 12:54:07;;;;;;;;;;;;;;;2.02;100.00;99377.78;5123581;27;19985;-78
2024/02/08 12:56:36;;;;;;;;;;;;;;;2.03;100.00;99376.75;5110526;27;19994;-79
2024/02/08 12:59:01;;;;;;;;;;;;;;;2.09;100.00;99365.41;5103956;27;19919;-77
2024/02/08 13:01:38;;;;;;;;;;;;;;;2.06;100.00;99341.06;5111644;28;19924;-78
2024/02/08 13:04:04;;;;;;;;;;;;;;;2.04;100.00;99332.47;5109612;27;19916;-77
2024/02/08 13:06:29;;;;;;;;;;;;;;;2.06;100.00;99317.19;5119854;27;19934;-78
2024/02/08 13:09:25;;;;;;;;;;;;;;;2.01;100.00;99301.81;5102169;27;19982;-79
2024/02/08 13:12:01;;;;;;;;;;;;;;;1.94;100.00;99296.38;5069987;28;19973;-79
2024/02/08 13:14:39;;;;;;;;;;;;;;;1.94;100.00;99274.31;5078575;28;19920;-79
2024/02/08 13:17:04;;;;;;;;;;;;;;;1.93;100.00;99273.50;5088084;28;20020;-79
2024/02/08 13:19:30;;;;;;;;;;;;;;;1.87;100.00;99260.09;5080735;28;20018;-79
2024/02/08 13:21:55;;;;;;;;;;;;;;;1.89;100.00;99250.16;5076238;28;19947;-79
2024/02/08 13:24:25;;;;;;;;;;;;;;;1.88;100.00;99257.28;5086731;28;19920;-79
2024/02/08 13:26:50;;;;;;;;;;;;;;;1.91;100.00;99253.44;5076872;28;19924;-78
2024/02/08 13:29:16;;;;;;;;;;;;;;;1.76;100.00;99242.81;5070208;28;19920;-78
2024/02/08 13:31:42;;;;;;;;;;;;;;;1.84;100.00;99241.91;5080615;28;19920;-78
2024/02/08 13:34:09;;;;;;;;;;;;;;;1.74;100.00;99247.47;5087640;28;19924;-81
2024/02/08 13:36:35;;;;;;;;;;;;;;;1.69;100.00;99244.53;5080754;28;20278;-78
2024/02/08 13:39:00;;;;;;;;;;;;;;;1.52;100.00;99231.41;5082737;28;20317;-75
2024/02/08 13:41:26;;;;;;;;;;;;;;;1.51;100.00;99227.09;5082617;28;19925;-75
2024/02/08 13:43:51;;;;;;;;;;;;;;;1.58;100.00;99227.22;5085693;28;19942;-75
2024/02/08 13:46:16;;;;;;;;;;;;;;;1.46;100.00;99214.38;5077973;28;20015;-75
2024/02/08 13:48:41;;;;;;;;;;;;;;;1.45;100.00;99209.25;5086944;28;19924;-76
2024/02/08 13:51:07;;;;;;;;;;;;;;;1.40;100.00;99204.47;5083036;28;19931;-75
2024/02/08 13:53:35;;;;;;;;;;;;;;;1.34;100.00;99194.56;5069026;28;19935;-75
2024/02/08 13:56:05;;;;;;;;;;;;;;;1.35;100.00;99182.97;5074717;28;20296;-75
2024/02/08 13:58:30;;;;;;;;;;;;;;;1.24;100.00;99180.75;5072154;28;19970;-75
2024/02/08 14:00:57;;;;;;;;;;;;;;;1.33;100.00;99169.91;5079757;28;19948;-75
2024/02/08 14:03:29;;;;;;;;;;;;;;;1.32;100.00;99162.13;5088247;28;19974;-75
2024/02/08 14:05:55;;;;;;;;;;;;;;;1.30;100.00;99156.19;5069401;28;19920;-75
2024/02/08 14:08:23;;;;;;;;;;;;;;;1.28;100.00;99152.88;5077893;28;19917;-76
2024/02/08 14:10:48;;;;;;;;;;;;;;;1.26;100.00;99162.84;5077760;28;19924;-75
2024/02/08 14:13:16;;;;;;;;;;;;;;;1.19;100.00;99142.34;5079810;28;19984;-75
2024/02/08 14:15:45;;;;;;;;;;;;;;;1.16;100.00;99144.53;5078221;28;19965;-80
2024/02/08 14:18:23;;;;;;;;;;;;;;;1.15;100.00;99134.94;5081676;28;20333;-79
2024/02/08 14:20:56;;;;;;;;;;;;;;;1.13;100.00;99119.22;5078238;28;20018;-78
2024/02/08 14:23:29;;;;;;;;;;;;;;;1.05;100.00;99108.66;5082952;28;20407;-78
2024/02/08 14:26:09;;;;;;;;;;;;;;;0.98;100.00;99105.06;5076386;28;19967;-78
2024/02/08 14:28:39;;;;;;;;;;;;;;;1.01;100.00;99102.91;5077750;28;20540;-78
2024/02/08 14:31:08;;;;;;;;;;;;;;;1.06;100.00;99089.94;5088892;28;19947;-78
2024/02/08 14:33:35;;;;;;;;;;;;;;;0.94;100.00;99085.25;5088049;28;19935;-79
2024/02/08 14:36:06;;;;;;;;;;;;;;;0.92;100.00;99089.91;5080442;28;19924;-78
2024/02/08 14:38:33;;;;;;;;;;;;;;;0.94;100.00;99094.00;5088513;28;19932;-79
2024/02/08 14:40:59;;;;;;;;;;;;;;;0.90;100.00;99079.47;5093624;28;19955;-78
2024/02/08 14:43:31;;;;;;;;;;;;;;;0.84;100.00;99077.53;5096645;28;19927;-79
2024/02/08 14:45:57;;;;;;;;;;;;;;;0.91;100.00;99081.13;5082319;28;19935;-78
2024/02/08 14:48:28;;;;;;;;;;;;;;;0.84;100.00;99064.31;5083160;28;19916;-78
2024/02/08 14:51:05;;;;;;;;;;;;;;;0.81;100.00;99057.50;5078507;28;20356;-78
2024/02/08 14:53:32;;;;;;;;;;;;;;;0.84;100.00;99054.50;5078013;28;19963;-78
2024/02/08 14:56:00;;;;;;;;;;;;;;;0.85;100.00;99055.34;5087546;28;19928;-80
2024/02/08 14:58:32;;;;;;;;;;;;;;;0.84;100.00;99057.16;5086010;28;19920;-80
2024/02/08 15:01:07;;;;;;;;;;;;;;;0.79;100.00;99053.41;5091161;28;19950;-79
2024/02/08 15:03:38;;;;;;;;;;;;;;;0.76;100.00;99038.72;5084127;28;19921;-80